createdAt,value
2023-05-24T00:00:02.843Z,11.20
2023-05-24T00:01:03.402Z,11.10
2023-05-24T00:02:02.979Z,11.20
2023-05-24T00:03:02.612Z,11.10
2023-05-24T00:04:02.923Z,11.20
2023-05-24T00:05:03.331Z,11.10
2023-05-24T00:06:02.918Z,11.10
2023-05-24T00:07:03.483Z,11.10
2023-05-24T00:08:03.132Z,11.10
2023-05-24T00:09:02.660Z,11.10
2023-05-24T00:10:02.990Z,11.10
2023-05-24T00:11:03.324Z,11.10
2023-05-24T00:12:03.267Z,11.10
2023-05-24T00:13:03.391Z,11.10
2023-05-24T00:14:02.973Z,11.10
2023-05-24T00:15:02.892Z,11.10
2023-05-24T00:16:02.876Z,11.10
2023-05-24T00:17:03.105Z,11.10
2023-05-24T00:18:03.238Z,11.10
2023-05-24T00:19:03.343Z,11.10
2023-05-24T00:20:04.531Z,11.10
2023-05-24T00:21:03.341Z,11.10
2023-05-24T00:22:02.981Z,11.10
2023-05-24T00:23:03.515Z,11.10
2023-05-24T00:24:03.125Z,11.00
2023-05-24T00:25:03.146Z,11.00
2023-05-24T00:26:03.120Z,11.00
2023-05-24T00:27:03.090Z,11.00
2023-05-24T00:28:02.737Z,11.00
2023-05-24T00:29:03.276Z,11.00
2023-05-24T00:30:03.335Z,11.00
2023-05-24T00:31:02.823Z,11.00
2023-05-24T00:32:03.582Z,11.00
2023-05-24T00:33:03.299Z,11.00
2023-05-24T00:34:03.566Z,10.90
2023-05-24T00:35:03.182Z,10.90
2023-05-24T00:36:02.754Z,10.90
2023-05-24T00:37:03.338Z,10.90
2023-05-24T00:38:02.908Z,10.90
2023-05-24T00:39:02.855Z,10.90
2023-05-24T00:40:03.412Z,10.90
2023-05-24T00:41:03.011Z,10.80
2023-05-24T00:42:03.543Z,10.80
2023-05-24T00:43:03.106Z,10.80
2023-05-24T00:44:02.687Z,10.80
2023-05-24T00:45:03.425Z,10.80
2023-05-24T00:46:03.190Z,10.80
2023-05-24T00:47:02.647Z,10.80
2023-05-24T00:48:03.295Z,10.80
2023-05-24T00:49:03.110Z,10.80
2023-05-24T00:50:02.680Z,10.80
2023-05-24T00:51:02.643Z,10.80
2023-05-24T00:52:02.744Z,10.80
2023-05-24T00:53:02.886Z,10.70
2023-05-24T00:54:02.861Z,10.70
2023-05-24T00:55:03.290Z,10.70
2023-05-24T00:56:03.376Z,10.80
2023-05-24T00:57:02.904Z,10.70
2023-05-24T00:58:03.588Z,10.70
2023-05-24T00:59:03.090Z,10.70
2023-05-24T01:00:02.812Z,10.70
2023-05-24T01:01:03.549Z,10.70
2023-05-24T01:02:03.386Z,10.70
2023-05-24T01:03:03.152Z,10.70
2023-05-24T01:04:02.850Z,10.70
2023-05-24T01:05:02.849Z,10.70
2023-05-24T01:06:03.401Z,10.70
2023-05-24T01:07:02.991Z,10.70
2023-05-24T01:08:03.443Z,10.70
2023-05-24T01:09:03.123Z,10.70
2023-05-24T01:10:02.719Z,10.70
2023-05-24T01:11:03.279Z,10.60
2023-05-24T01:12:03.344Z,10.60
2023-05-24T01:13:02.887Z,10.60
2023-05-24T01:14:02.934Z,10.60
2023-05-24T01:15:02.876Z,10.60
2023-05-24T01:16:03.615Z,10.60
2023-05-24T01:17:03.478Z,10.60
2023-05-24T01:18:03.506Z,10.50
2023-05-24T01:19:03.061Z,10.50
2023-05-24T01:20:03.625Z,10.50
2023-05-24T01:21:03.329Z,10.50
2023-05-24T01:22:02.956Z,10.40
2023-05-24T01:23:02.769Z,10.40
2023-05-24T01:24:03.392Z,10.40
2023-05-24T01:25:02.992Z,10.40
2023-05-24T01:26:03.552Z,10.40
2023-05-24T01:27:03.155Z,10.40
2023-05-24T01:28:02.739Z,10.40
2023-05-24T01:29:02.752Z,10.40
2023-05-24T01:30:02.674Z,10.40
2023-05-24T01:31:02.707Z,10.30
2023-05-24T01:32:03.242Z,10.30
2023-05-24T01:33:03.227Z,10.30
2023-05-24T01:34:02.914Z,10.30
2023-05-24T01:35:03.520Z,10.30
2023-05-24T01:36:03.001Z,10.20
2023-05-24T01:37:03.074Z,10.20
2023-05-24T01:38:02.828Z,10.20
2023-05-24T01:39:03.350Z,10.20
2023-05-24T01:40:03.004Z,10.20
2023-05-24T01:41:02.884Z,10.20
2023-05-24T01:42:03.536Z,10.10
2023-05-24T01:43:03.085Z,10.10
2023-05-24T01:44:02.676Z,10.10
2023-05-24T01:45:03.187Z,10.00
2023-05-24T01:46:02.640Z,10.00
2023-05-24T01:47:03.334Z,10.00
2023-05-24T01:48:03.621Z,9.90
2023-05-24T01:49:02.814Z,10.00
2023-05-24T01:50:02.801Z,9.90
2023-05-24T01:51:03.345Z,9.90
2023-05-24T01:52:03.014Z,9.80
2023-05-24T01:53:02.753Z,9.80
2023-05-24T01:54:03.263Z,9.80
2023-05-24T01:55:02.836Z,9.80
2023-05-24T01:56:03.007Z,9.80
2023-05-24T01:57:03.609Z,9.80
2023-05-24T01:58:03.145Z,9.70
2023-05-24T01:59:02.753Z,9.70
2023-05-24T02:00:03.038Z,9.70
2023-05-24T02:01:03.297Z,9.70
2023-05-24T02:02:02.866Z,9.70
2023-05-24T02:03:03.094Z,9.70
2023-05-24T02:04:02.678Z,9.70
2023-05-24T02:05:03.185Z,9.70
2023-05-24T02:06:02.834Z,9.70
2023-05-24T02:07:03.501Z,9.70
2023-05-24T02:08:03.051Z,9.70
2023-05-24T02:09:03.487Z,9.60
2023-05-24T02:10:03.530Z,9.60
2023-05-24T02:11:03.106Z,9.60
2023-05-24T02:12:03.307Z,9.60
2023-05-24T02:13:02.812Z,9.60
2023-05-24T02:14:02.806Z,9.60
2023-05-24T02:15:02.877Z,9.50
2023-05-24T02:16:03.542Z,9.50
2023-05-24T02:17:04.039Z,9.50
2023-05-24T02:18:03.227Z,9.50
2023-05-24T02:19:02.885Z,9.50
2023-05-24T02:20:03.610Z,9.50
2023-05-24T02:21:02.913Z,9.50
2023-05-24T02:22:02.859Z,9.50
2023-05-24T02:23:02.801Z,9.50
2023-05-24T02:24:02.926Z,9.50
2023-05-24T02:25:03.495Z,9.50
2023-05-24T02:26:03.062Z,9.50
2023-05-24T02:27:02.626Z,9.50
2023-05-24T02:28:02.821Z,9.50
2023-05-24T02:29:03.305Z,9.50
2023-05-24T02:30:03.394Z,9.40
2023-05-24T02:31:03.407Z,9.40
2023-05-24T02:32:03.477Z,9.40
2023-05-24T02:33:03.404Z,9.40
2023-05-24T02:34:03.055Z,9.40
2023-05-24T02:35:03.177Z,9.40
2023-05-24T02:36:03.123Z,9.40
2023-05-24T02:37:02.700Z,9.40
2023-05-24T02:38:03.159Z,9.40
2023-05-24T02:39:03.219Z,9.40
2023-05-24T02:40:02.752Z,9.40
2023-05-24T02:41:03.254Z,9.40
2023-05-24T02:42:02.808Z,9.40
2023-05-24T02:43:03.414Z,9.40
2023-05-24T02:44:03.153Z,9.40
2023-05-24T02:45:03.019Z,9.40
2023-05-24T02:46:03.607Z,9.40
2023-05-24T02:47:03.585Z,9.40
2023-05-24T02:48:03.529Z,9.40
2023-05-24T02:49:03.069Z,9.40
2023-05-24T02:50:02.633Z,9.40
2023-05-24T02:51:03.217Z,9.40
2023-05-24T02:52:02.862Z,9.40
2023-05-24T02:53:03.372Z,9.30
2023-05-24T02:54:02.943Z,9.30
2023-05-24T02:55:02.888Z,9.30
2023-05-24T02:56:03.448Z,9.30
2023-05-24T02:57:03.369Z,9.30
2023-05-24T02:58:03.473Z,9.30
2023-05-24T02:59:03.425Z,9.30
2023-05-24T03:00:02.885Z,9.30
2023-05-24T03:01:02.959Z,9.30
2023-05-24T03:02:02.685Z,9.30
2023-05-24T03:03:03.005Z,9.30
2023-05-24T03:04:03.239Z,9.20
2023-05-24T03:05:03.208Z,9.20
2023-05-24T03:06:02.990Z,9.20
2023-05-24T03:07:03.050Z,9.20
2023-05-24T03:08:02.835Z,9.20
2023-05-24T03:09:02.948Z,9.20
2023-05-24T03:10:02.957Z,9.20
2023-05-24T03:11:03.568Z,9.20
2023-05-24T03:12:03.130Z,9.20
2023-05-24T03:13:02.636Z,9.20
2023-05-24T03:14:03.211Z,9.20
2023-05-24T03:15:02.769Z,9.10
2023-05-24T03:16:02.942Z,9.10
2023-05-24T03:17:02.767Z,9.10
2023-05-24T03:18:03.428Z,9.10
2023-05-24T03:19:03.100Z,9.10
2023-05-24T03:20:03.750Z,9.10
2023-05-24T03:21:02.707Z,9.10
2023-05-24T03:22:03.249Z,9.00
2023-05-24T03:23:03.250Z,9.00
2023-05-24T03:24:02.885Z,9.00
2023-05-24T03:25:03.504Z,9.00
2023-05-24T03:26:03.073Z,9.00
2023-05-24T03:27:02.731Z,9.00
2023-05-24T03:28:03.313Z,9.00
2023-05-24T03:29:02.756Z,9.00
2023-05-24T03:30:02.820Z,9.00
2023-05-24T03:31:02.885Z,9.00
2023-05-24T03:32:03.359Z,9.00
2023-05-24T03:33:03.056Z,9.00
2023-05-24T03:34:02.932Z,9.00
2023-05-24T03:35:03.506Z,9.00
2023-05-24T03:36:03.016Z,9.00
2023-05-24T03:37:03.267Z,9.00
2023-05-24T03:38:03.176Z,8.90
2023-05-24T03:39:03.674Z,8.90
2023-05-24T03:40:03.238Z,8.90
2023-05-24T03:41:02.920Z,8.90
2023-05-24T03:42:03.070Z,8.90
2023-05-24T03:43:04.556Z,8.90
2023-05-24T03:44:02.831Z,8.90
2023-05-24T03:45:03.470Z,8.90
2023-05-24T03:46:03.539Z,8.80
2023-05-24T03:47:03.228Z,8.90
2023-05-24T03:48:02.816Z,8.90
2023-05-24T03:49:02.637Z,8.80
2023-05-24T03:50:03.595Z,8.90
2023-05-24T03:51:03.219Z,8.90
2023-05-24T03:52:02.898Z,8.80
2023-05-24T03:53:03.585Z,8.90
2023-05-24T03:54:03.557Z,8.90
2023-05-24T03:55:03.043Z,8.90
2023-05-24T03:56:03.552Z,8.90
2023-05-24T03:57:03.141Z,8.90
2023-05-24T03:58:03.147Z,8.90
2023-05-24T03:59:02.857Z,8.90
2023-05-24T04:00:02.943Z,8.90
2023-05-24T04:01:03.529Z,8.80
2023-05-24T04:02:03.140Z,8.80
2023-05-24T04:03:03.361Z,8.80
2023-05-24T04:04:03.110Z,8.80
2023-05-24T04:05:02.728Z,8.80
2023-05-24T04:06:03.412Z,8.80
2023-05-24T04:07:02.891Z,8.80
2023-05-24T04:08:03.597Z,8.80
2023-05-24T04:09:03.152Z,8.90
2023-05-24T04:10:03.243Z,8.90
2023-05-24T04:11:03.146Z,8.90
2023-05-24T04:12:03.638Z,8.90
2023-05-24T04:13:02.667Z,8.90
2023-05-24T04:14:02.713Z,8.90
2023-05-24T04:15:03.354Z,8.90
2023-05-24T04:16:02.968Z,9.00
2023-05-24T04:17:03.033Z,9.00
2023-05-24T04:18:03.432Z,9.00
2023-05-24T04:19:03.135Z,9.00
2023-05-24T04:20:02.899Z,9.00
2023-05-24T04:21:03.036Z,9.00
2023-05-24T04:22:03.557Z,9.00
2023-05-24T04:23:03.020Z,9.00
2023-05-24T04:24:03.003Z,9.00
2023-05-24T04:25:03.972Z,9.00
2023-05-24T04:26:02.700Z,9.00
2023-05-24T04:27:02.929Z,9.10
2023-05-24T04:28:03.414Z,9.10
2023-05-24T04:29:03.427Z,9.10
2023-05-24T04:30:03.482Z,9.10
2023-05-24T04:31:02.983Z,9.10
2023-05-24T04:32:02.838Z,9.10
2023-05-24T04:33:03.414Z,9.10
2023-05-24T04:34:03.245Z,9.20
2023-05-24T04:35:03.136Z,9.10
2023-05-24T04:36:03.292Z,9.20
2023-05-24T04:37:02.819Z,9.20
2023-05-24T04:38:03.475Z,9.20
2023-05-24T04:39:03.415Z,9.20
2023-05-24T04:40:03.380Z,9.30
2023-05-24T04:41:03.046Z,9.30
2023-05-24T04:42:03.617Z,9.30
2023-05-24T04:43:02.698Z,9.30
2023-05-24T04:44:03.298Z,9.30
2023-05-24T04:45:03.302Z,9.40
2023-05-24T04:46:03.287Z,9.40
2023-05-24T04:47:02.959Z,9.40
2023-05-24T04:48:02.804Z,9.40
2023-05-24T04:49:03.463Z,9.40
2023-05-24T04:50:03.174Z,9.40
2023-05-24T04:51:02.791Z,9.40
2023-05-24T04:52:03.383Z,9.50
2023-05-24T04:53:03.018Z,9.50
2023-05-24T04:54:03.464Z,9.50
2023-05-24T04:55:03.019Z,9.50
2023-05-24T04:56:03.033Z,9.50
2023-05-24T04:58:03.413Z,9.60
2023-05-24T04:59:03.037Z,9.60
2023-05-24T05:00:03.068Z,9.60
2023-05-24T05:01:03.082Z,9.60
2023-05-24T05:02:03.406Z,9.60
2023-05-24T05:03:03.069Z,9.60
2023-05-24T05:04:02.949Z,9.60
2023-05-24T05:05:02.809Z,9.60
2023-05-24T05:06:03.369Z,9.60
2023-05-24T05:07:02.949Z,9.60
2023-05-24T05:08:03.549Z,9.60
2023-05-24T05:09:03.602Z,9.70
2023-05-24T05:10:03.541Z,9.70
2023-05-24T05:11:03.221Z,9.70
2023-05-24T05:12:02.809Z,9.70
2023-05-24T05:13:03.456Z,9.70
2023-05-24T05:14:03.570Z,9.80
2023-05-24T05:15:03.034Z,9.80
2023-05-24T05:16:03.061Z,9.80
2023-05-24T05:17:03.252Z,9.80
2023-05-24T05:18:02.758Z,9.90
2023-05-24T05:19:03.387Z,9.90
2023-05-24T05:20:03.025Z,9.90
2023-05-24T05:21:02.660Z,9.90
2023-05-24T05:22:03.385Z,9.90
2023-05-24T05:23:03.132Z,9.90
2023-05-24T05:24:03.144Z,10.00
2023-05-24T05:25:02.767Z,10.00
2023-05-24T05:26:03.281Z,10.00
2023-05-24T05:27:03.388Z,10.00
2023-05-24T05:28:03.440Z,10.00
2023-05-24T05:29:03.145Z,10.00
2023-05-24T05:30:02.741Z,10.00
2023-05-24T05:31:03.264Z,10.00
2023-05-24T05:32:03.194Z,10.00
2023-05-24T05:33:03.390Z,10.00
2023-05-24T05:34:02.874Z,10.00
2023-05-24T05:35:03.487Z,10.00
2023-05-24T05:36:03.003Z,10.00
2023-05-24T05:37:03.466Z,10.00
2023-05-24T05:38:03.554Z,10.10
2023-05-24T05:39:03.424Z,10.10
2023-05-24T05:40:03.310Z,10.20
2023-05-24T05:41:02.808Z,10.30
2023-05-24T05:42:02.890Z,10.30
2023-05-24T05:43:03.431Z,10.40
2023-05-24T05:44:03.172Z,10.50
2023-05-24T05:45:03.657Z,10.60
2023-05-24T05:46:03.578Z,10.60
2023-05-24T05:47:03.385Z,10.70
2023-05-24T05:48:03.395Z,10.80
2023-05-24T05:49:03.158Z,10.80
2023-05-24T05:50:02.666Z,10.90
2023-05-24T05:51:03.213Z,11.00
2023-05-24T05:52:03.332Z,11.10
2023-05-24T05:53:02.790Z,11.20
2023-05-24T05:54:02.802Z,11.30
2023-05-24T05:55:03.256Z,11.30
2023-05-24T05:56:02.980Z,11.30
2023-05-24T05:57:03.399Z,11.30
2023-05-24T05:58:03.140Z,11.30
2023-05-24T05:59:03.149Z,11.30
2023-05-24T06:00:03.278Z,11.30
2023-05-24T06:01:03.054Z,11.30
2023-05-24T06:02:02.675Z,11.20
2023-05-24T06:03:03.374Z,11.20
2023-05-24T06:04:03.191Z,11.20
2023-05-24T06:05:03.085Z,11.20
2023-05-24T06:06:02.649Z,11.20
2023-05-24T06:07:03.481Z,11.10
2023-05-24T06:08:03.069Z,11.10
2023-05-24T06:09:03.156Z,11.10
2023-05-24T06:10:03.155Z,11.10
2023-05-24T06:11:02.783Z,11.10
2023-05-24T06:12:03.268Z,11.10
2023-05-24T06:13:03.482Z,11.00
2023-05-24T06:14:03.030Z,11.00
2023-05-24T06:15:03.078Z,11.00
2023-05-24T06:16:03.611Z,10.90
2023-05-24T06:17:03.424Z,10.90
2023-05-24T06:18:02.894Z,10.90
2023-05-24T06:19:06.200Z,10.90
2023-05-24T06:20:03.402Z,10.80
2023-05-24T06:21:03.020Z,10.80
2023-05-24T06:22:03.083Z,10.80
2023-05-24T06:23:03.535Z,10.70
2023-05-24T06:24:03.115Z,10.70
2023-05-24T06:25:03.121Z,10.70
2023-05-24T06:26:03.641Z,10.70
2023-05-24T06:27:04.660Z,10.70
2023-05-24T06:28:02.721Z,10.70
2023-05-24T06:29:03.389Z,10.70
2023-05-24T06:30:02.853Z,10.70
2023-05-24T06:31:02.789Z,10.70
2023-05-24T06:32:02.858Z,10.70
2023-05-24T06:33:03.554Z,10.70
2023-05-24T06:34:04.556Z,10.70
2023-05-24T06:35:03.025Z,10.70
2023-05-24T06:36:03.094Z,10.70
2023-05-24T06:37:02.827Z,10.70
2023-05-24T06:38:03.343Z,10.70
2023-05-24T06:39:03.309Z,10.70
2023-05-24T06:40:03.137Z,10.70
2023-05-24T06:41:03.273Z,10.70
2023-05-24T06:42:03.243Z,10.70
2023-05-24T06:43:02.860Z,10.70
2023-05-24T06:44:03.512Z,10.60
2023-05-24T06:45:03.137Z,10.60
2023-05-24T06:46:02.816Z,10.60
2023-05-24T06:47:02.839Z,10.60
2023-05-24T06:48:03.487Z,10.60
2023-05-24T06:49:02.709Z,10.70
2023-05-24T06:50:03.440Z,10.70
2023-05-24T06:51:03.204Z,10.70
2023-05-24T06:52:03.100Z,10.80
2023-05-24T06:53:02.951Z,10.80
2023-05-24T06:54:03.603Z,10.90
2023-05-24T06:55:03.453Z,11.00
2023-05-24T06:56:03.135Z,11.10
2023-05-24T06:57:03.154Z,11.20
2023-05-24T06:58:03.137Z,11.30
2023-05-24T06:59:03.086Z,11.40
2023-05-24T07:00:02.658Z,11.50
2023-05-24T07:01:03.481Z,11.50
2023-05-24T07:02:04.055Z,11.60
2023-05-24T07:03:02.813Z,11.60
2023-05-24T07:04:03.445Z,11.70
2023-05-24T07:05:03.492Z,11.70
2023-05-24T07:06:03.607Z,11.80
2023-05-24T07:07:03.288Z,11.80
2023-05-24T07:08:02.990Z,11.90
2023-05-24T07:09:03.041Z,11.90
2023-05-24T07:10:03.027Z,11.90
2023-05-24T07:11:02.942Z,12.00
2023-05-24T07:12:03.112Z,12.00
2023-05-24T07:13:03.168Z,12.10
2023-05-24T07:14:02.783Z,12.10
2023-05-24T07:15:03.269Z,12.20
2023-05-24T07:16:02.770Z,12.20
2023-05-24T07:17:02.832Z,12.20
2023-05-24T07:18:03.161Z,12.20
2023-05-24T07:19:04.818Z,12.30
2023-05-24T07:20:03.271Z,12.40
2023-05-24T07:21:03.575Z,12.40
2023-05-24T07:22:03.081Z,12.50
2023-05-24T07:23:02.673Z,12.50
2023-05-24T07:24:03.356Z,12.50
2023-05-24T07:25:03.061Z,12.60
2023-05-24T07:26:03.211Z,12.60
2023-05-24T07:27:03.142Z,12.70
2023-05-24T07:28:02.815Z,12.70
2023-05-24T07:29:03.528Z,12.80
2023-05-24T07:30:03.091Z,12.90
2023-05-24T07:31:02.663Z,12.90
2023-05-24T07:32:03.348Z,12.90
2023-05-24T07:33:03.005Z,12.90
2023-05-24T07:34:03.232Z,12.90
2023-05-24T07:35:03.309Z,13.00
2023-05-24T07:36:02.937Z,13.00
2023-05-24T07:37:03.515Z,13.00
2023-05-24T07:38:03.057Z,13.10
2023-05-24T07:39:02.697Z,13.10
2023-05-24T07:40:03.515Z,13.10
2023-05-24T07:41:03.010Z,13.20
2023-05-24T07:42:03.510Z,13.20
2023-05-24T07:43:04.006Z,13.20
2023-05-24T07:44:03.561Z,13.20
2023-05-24T07:45:03.022Z,13.30
2023-05-24T07:46:02.676Z,13.30
2023-05-24T07:47:03.375Z,13.30
2023-05-24T07:48:03.083Z,13.30
2023-05-24T07:49:03.618Z,13.30
2023-05-24T07:50:03.254Z,13.30
2023-05-24T07:51:03.340Z,13.30
2023-05-24T07:52:02.838Z,13.30
2023-05-24T07:53:02.744Z,13.30
2023-05-24T07:54:03.383Z,13.30
2023-05-24T07:55:03.625Z,13.30
2023-05-24T07:56:03.112Z,13.40
2023-05-24T07:57:02.750Z,13.40
2023-05-24T07:58:03.500Z,13.40
2023-05-24T07:59:03.045Z,13.50
2023-05-24T08:00:02.919Z,13.50
2023-05-24T08:01:03.022Z,13.50
2023-05-24T08:02:02.846Z,13.60
2023-05-24T08:03:04.143Z,13.60
2023-05-24T08:04:03.494Z,13.70
2023-05-24T08:05:03.208Z,13.60
2023-05-24T08:06:02.700Z,13.60
2023-05-24T08:07:03.187Z,13.60
2023-05-24T08:08:02.874Z,13.60
2023-05-24T08:09:03.484Z,13.50
2023-05-24T08:10:02.728Z,13.50
2023-05-24T08:11:03.329Z,13.50
2023-05-24T08:12:02.909Z,13.50
2023-05-24T08:13:02.953Z,13.50
2023-05-24T08:14:03.189Z,13.60
2023-05-24T08:15:02.731Z,13.60
2023-05-24T08:16:02.708Z,13.70
2023-05-24T08:17:02.867Z,13.80
2023-05-24T08:18:03.546Z,13.90
2023-05-24T08:19:03.176Z,14.00
2023-05-24T08:20:02.869Z,14.00
2023-05-24T08:21:02.699Z,14.10
2023-05-24T08:22:03.293Z,14.20
2023-05-24T08:23:03.401Z,14.20
2023-05-24T08:24:04.410Z,14.30
2023-05-24T08:25:03.234Z,14.30
2023-05-24T08:26:02.742Z,14.30
2023-05-24T08:27:03.420Z,14.30
2023-05-24T08:28:02.880Z,14.30
2023-05-24T08:29:03.607Z,14.40
2023-05-24T08:30:03.100Z,14.40
2023-05-24T08:31:03.387Z,14.50
2023-05-24T08:32:03.351Z,14.50
2023-05-24T08:33:02.693Z,14.60
2023-05-24T08:34:03.264Z,14.70
2023-05-24T08:35:18.052Z,14.80
2023-05-24T08:36:03.624Z,14.90
2023-05-24T08:37:02.685Z,14.90
2023-05-24T08:38:02.725Z,15.00
2023-05-24T08:39:03.244Z,15.00
2023-05-24T08:40:03.205Z,15.00
2023-05-24T08:41:02.704Z,15.10
2023-05-24T08:43:03.454Z,15.10
2023-05-24T08:44:03.175Z,15.10
2023-05-24T08:45:02.786Z,15.10
2023-05-24T08:46:03.349Z,15.10
2023-05-24T08:47:03.191Z,15.00
2023-05-24T08:48:03.261Z,15.00
2023-05-24T08:49:03.137Z,15.00
2023-05-24T08:50:02.987Z,15.10
2023-05-24T08:51:02.924Z,15.10
2023-05-24T08:52:03.569Z,15.20
2023-05-24T08:53:03.169Z,15.30
2023-05-24T08:54:02.782Z,15.40
2023-05-24T08:55:03.385Z,15.50
2023-05-24T08:56:03.356Z,15.60
2023-05-24T08:57:03.154Z,15.60
2023-05-24T08:58:02.755Z,15.70
2023-05-24T08:59:02.780Z,15.80
2023-05-24T09:00:02.792Z,15.90
2023-05-24T09:01:03.277Z,15.90
2023-05-24T09:02:03.239Z,16.00
2023-05-24T09:03:03.160Z,16.10
2023-05-24T09:04:03.480Z,16.10
2023-05-24T09:05:02.733Z,16.20
2023-05-24T09:06:03.276Z,16.20
2023-05-24T09:07:03.324Z,16.20
2023-05-24T09:08:03.386Z,16.20
2023-05-24T09:09:02.849Z,16.20
2023-05-24T09:10:03.603Z,16.10
2023-05-24T09:11:02.703Z,16.10
2023-05-24T09:12:03.131Z,16.10
2023-05-24T09:13:03.381Z,16.10
2023-05-24T09:14:02.996Z,16.10
2023-05-24T09:15:03.574Z,16.10
2023-05-24T09:16:03.192Z,16.00
2023-05-24T09:17:02.909Z,16.00
2023-05-24T09:18:03.555Z,15.90
2023-05-24T09:19:03.122Z,15.80
2023-05-24T09:20:02.753Z,15.80
2023-05-24T09:21:03.432Z,15.90
2023-05-24T09:22:03.130Z,15.90
2023-05-24T09:23:02.765Z,15.90
2023-05-24T09:24:03.221Z,16.00
2023-05-24T09:25:02.882Z,16.00
2023-05-24T09:26:03.323Z,16.00
2023-05-24T09:27:02.928Z,16.00
2023-05-24T09:28:02.797Z,16.10
2023-05-24T09:29:03.424Z,16.20
2023-05-24T09:30:02.939Z,16.20
2023-05-24T09:31:05.507Z,16.30
2023-05-24T09:32:03.304Z,16.30
2023-05-24T09:33:02.931Z,16.30
2023-05-24T09:34:03.560Z,16.30
2023-05-24T09:35:03.234Z,16.30
2023-05-24T09:36:02.911Z,16.30
2023-05-24T09:37:03.559Z,16.40
2023-05-24T09:38:03.175Z,16.40
2023-05-24T09:39:02.693Z,16.40
2023-05-24T09:40:03.243Z,16.40
2023-05-24T09:41:03.450Z,16.30
2023-05-24T09:42:03.563Z,16.30
2023-05-24T09:43:03.522Z,16.30
2023-05-24T09:44:03.120Z,16.20
2023-05-24T09:45:02.678Z,16.10
2023-05-24T09:46:03.394Z,16.10
2023-05-24T09:47:03.398Z,16.10
2023-05-24T09:48:02.712Z,16.00
2023-05-24T09:49:03.190Z,16.00
2023-05-24T09:50:03.280Z,16.00
2023-05-24T09:51:02.854Z,15.90
2023-05-24T09:52:03.363Z,15.90
2023-05-24T09:53:02.696Z,15.90
2023-05-24T09:54:03.311Z,15.90
2023-05-24T09:55:02.630Z,15.90
2023-05-24T09:56:03.229Z,15.90
2023-05-24T09:57:04.754Z,15.90
2023-05-24T09:58:03.281Z,15.90
2023-05-24T09:59:03.275Z,15.90
2023-05-24T10:00:03.286Z,15.80
2023-05-24T10:01:03.271Z,15.80
2023-05-24T10:02:02.696Z,15.80
2023-05-24T10:03:03.454Z,15.80
2023-05-24T10:04:03.812Z,15.80
2023-05-24T10:05:02.984Z,15.80
2023-05-24T10:06:02.861Z,15.80
2023-05-24T10:07:03.604Z,15.80
2023-05-24T10:08:03.639Z,15.80
2023-05-24T10:09:03.141Z,15.80
2023-05-24T10:10:04.709Z,15.80
2023-05-24T10:11:02.732Z,15.90
2023-05-24T10:12:02.904Z,15.90
2023-05-24T10:13:03.523Z,15.90
2023-05-24T10:14:03.305Z,16.00
2023-05-24T10:15:03.707Z,15.90
2023-05-24T10:16:02.732Z,15.90
2023-05-24T10:17:03.096Z,15.90
2023-05-24T10:18:02.924Z,15.90
2023-05-24T10:19:03.166Z,15.90
2023-05-24T10:20:02.807Z,15.90
2023-05-24T10:21:03.591Z,15.90
2023-05-24T10:22:02.904Z,15.90
2023-05-24T10:23:03.484Z,15.80
2023-05-24T10:24:03.059Z,15.70
2023-05-24T10:25:03.112Z,15.60
2023-05-24T10:26:03.148Z,15.60
2023-05-24T10:27:03.302Z,15.60
2023-05-24T10:28:03.522Z,15.60
2023-05-24T10:29:02.968Z,15.60
2023-05-24T10:30:02.855Z,15.60
2023-05-24T10:31:02.794Z,15.70
2023-05-24T10:32:03.035Z,15.70
2023-05-24T10:33:02.709Z,15.70
2023-05-24T10:34:07.515Z,15.80
2023-05-24T10:35:02.826Z,15.80
2023-05-24T10:36:03.563Z,15.80
2023-05-24T10:37:03.319Z,15.80
2023-05-24T10:38:03.563Z,15.90
2023-05-24T10:39:03.133Z,15.90
2023-05-24T10:40:02.778Z,16.00
2023-05-24T10:41:02.894Z,16.10
2023-05-24T10:42:02.719Z,16.10
2023-05-24T10:43:02.794Z,16.10
2023-05-24T10:44:09.130Z,16.20
2023-05-24T10:45:03.569Z,16.20
2023-05-24T10:46:03.249Z,16.20
2023-05-24T10:47:03.608Z,16.20
2023-05-24T10:48:02.682Z,16.10
2023-05-24T10:49:03.220Z,16.10
2023-05-24T10:50:02.943Z,16.10
2023-05-24T10:51:02.986Z,16.10
2023-05-24T10:52:02.906Z,16.20
2023-05-24T10:53:03.015Z,16.20
2023-05-24T10:54:03.008Z,16.30
2023-05-24T10:55:04.579Z,16.30
2023-05-24T10:56:03.328Z,16.40
2023-05-24T10:57:03.373Z,16.40
2023-05-24T10:58:02.896Z,16.50
2023-05-24T10:59:02.682Z,16.50
2023-05-24T11:00:03.465Z,16.60
2023-05-24T11:01:03.104Z,16.60
2023-05-24T11:02:03.095Z,16.70
2023-05-24T11:03:02.717Z,16.70
2023-05-24T11:04:03.429Z,16.70
2023-05-24T11:05:03.015Z,16.70
2023-05-24T11:06:03.220Z,16.70
2023-05-24T11:07:02.819Z,16.80
2023-05-24T11:08:03.372Z,16.80
2023-05-24T11:09:02.932Z,16.80
2023-05-24T11:10:03.051Z,16.90
2023-05-24T11:11:11.754Z,17.00
2023-05-24T11:12:03.003Z,17.00
2023-05-24T11:13:03.507Z,17.10
2023-05-24T11:14:03.626Z,17.20
2023-05-24T11:15:03.319Z,17.20
2023-05-24T11:16:03.074Z,17.20
2023-05-24T11:17:03.191Z,17.20
2023-05-24T11:18:03.087Z,17.20
2023-05-24T11:19:02.943Z,17.20
2023-05-24T11:20:03.109Z,17.20
2023-05-24T11:21:02.767Z,17.10
2023-05-24T11:22:02.766Z,17.00
2023-05-24T11:23:03.110Z,16.90
2023-05-24T11:24:02.824Z,16.90
2023-05-24T11:25:02.675Z,16.80
2023-05-24T11:26:02.778Z,16.90
2023-05-24T11:27:02.766Z,16.90
2023-05-24T11:28:03.439Z,16.90
2023-05-24T11:29:05.138Z,16.90
2023-05-24T11:30:03.416Z,16.90
2023-05-24T11:31:03.141Z,17.00
2023-05-24T11:32:03.057Z,17.00
2023-05-24T11:33:03.232Z,17.00
2023-05-24T11:34:02.931Z,17.10
2023-05-24T11:35:03.556Z,17.10
2023-05-24T11:36:03.271Z,17.10
2023-05-24T11:37:03.237Z,17.10
2023-05-24T11:38:02.806Z,17.00
2023-05-24T11:39:02.752Z,16.90
2023-05-24T11:40:03.408Z,16.90
2023-05-24T11:41:03.468Z,16.80
2023-05-24T11:42:03.533Z,16.70
2023-05-24T11:43:03.075Z,16.60
2023-05-24T11:44:02.672Z,16.50
2023-05-24T11:45:03.263Z,16.40
2023-05-24T11:46:03.195Z,16.40
2023-05-24T11:47:02.995Z,16.40
2023-05-24T11:48:02.714Z,16.30
2023-05-24T11:49:03.119Z,16.20
2023-05-24T11:50:03.101Z,16.20
2023-05-24T11:51:03.032Z,16.10
2023-05-24T11:52:03.428Z,16.10
2023-05-24T11:53:02.704Z,16.10
2023-05-24T11:54:03.222Z,16.00
2023-05-24T11:55:02.933Z,16.00
2023-05-24T11:56:02.862Z,16.10
2023-05-24T11:57:02.823Z,16.10
2023-05-24T11:58:03.475Z,16.20
2023-05-24T11:59:03.526Z,16.30
2023-05-24T12:00:02.659Z,16.30
2023-05-24T12:01:02.710Z,16.40
2023-05-24T12:02:03.423Z,16.40
2023-05-24T12:03:02.899Z,16.40
2023-05-24T12:04:02.881Z,16.40
2023-05-24T12:05:03.521Z,16.40
2023-05-24T12:06:02.772Z,16.40
2023-05-24T12:07:02.832Z,16.50
2023-05-24T12:08:03.460Z,16.50
2023-05-24T12:09:03.327Z,16.60
2023-05-24T12:10:03.023Z,16.60
2023-05-24T12:11:02.729Z,16.70
2023-05-24T12:12:03.265Z,16.70
2023-05-24T12:13:02.985Z,16.80
2023-05-24T12:14:03.546Z,16.90
2023-05-24T12:15:03.610Z,16.90
2023-05-24T12:16:03.176Z,17.00
2023-05-24T12:17:02.782Z,17.00
2023-05-24T12:18:03.020Z,17.10
2023-05-24T12:19:07.346Z,17.10
2023-05-24T12:20:03.411Z,17.10
2023-05-24T12:21:02.627Z,17.00
2023-05-24T12:22:03.548Z,17.00
2023-05-24T12:23:03.236Z,17.00
2023-05-24T12:24:02.732Z,16.90
2023-05-24T12:25:03.277Z,16.90
2023-05-24T12:26:02.810Z,16.90
2023-05-24T12:27:02.876Z,16.90
2023-05-24T12:28:03.630Z,16.80
2023-05-24T12:29:03.735Z,16.80
2023-05-24T12:30:03.258Z,16.80
2023-05-24T12:31:03.318Z,16.80
2023-05-24T12:32:03.178Z,16.80
2023-05-24T12:33:02.770Z,16.80
2023-05-24T12:34:03.545Z,16.80
2023-05-24T12:35:03.470Z,16.80
2023-05-24T12:36:03.543Z,16.80
2023-05-24T12:37:03.189Z,16.90
2023-05-24T12:38:03.088Z,16.90
2023-05-24T12:39:02.634Z,17.00
2023-05-24T12:40:03.378Z,17.00
2023-05-24T12:41:12.710Z,17.10
2023-05-24T12:42:03.051Z,17.20
2023-05-24T12:43:02.755Z,17.20
2023-05-24T12:44:03.554Z,17.30
2023-05-24T12:45:03.147Z,17.40
2023-05-24T12:46:03.673Z,17.40
2023-05-24T12:47:02.647Z,17.40
2023-05-24T12:48:03.261Z,17.40
2023-05-24T12:49:02.975Z,17.40
2023-05-24T12:50:03.538Z,17.40
2023-05-24T12:51:03.054Z,17.30
2023-05-24T12:52:02.657Z,17.30
2023-05-24T12:53:03.339Z,17.30
2023-05-24T12:54:02.833Z,17.30
2023-05-24T12:55:03.360Z,17.30
2023-05-24T12:56:03.045Z,17.20
2023-05-24T12:57:03.610Z,17.20
2023-05-24T12:58:03.605Z,17.20
2023-05-24T12:59:03.172Z,17.30
2023-05-24T13:00:02.692Z,17.30
2023-05-24T13:01:03.379Z,17.20